sensor_id;sensor_type;location;lat;lon;timestamp;pressure;altitude;pressure_sealevel;temperature;humidity
55410;BME280;41279;43.546;16.426;2022-07-29T00:00:12;101379.00;;;-146.77;100.00
55410;BME280;41279;43.546;16.426;2022-07-29T00:02:38;97748.88;;;-146.77;100.00
55410;BME280;41279;43.546;16.426;2022-07-29T00:05:04;92568.59;;;-146.77;100.00
55410;BME280;41279;43.546;16.426;2022-07-29T00:07:30;95935.03;;;-146.77;100.00
55410;BME280;41279;43.546;16.426;2022-07-29T00:09:56;90757.06;;;-146.77;100.00
55410;BME280;41279;43.546;16.426;2022-07-29T00:12:23;86877.97;;;-146.77;100.00
55410;BME280;41279;43.546;16.426;2022-07-29T00:14:49;91792.13;;;-146.77;100.00
55410;BME280;41279;43.546;16.426;2022-07-29T00:17:14;95157.91;;;-146.77;100.00
55410;BME280;41279;43.546;16.426;2022-07-29T00:19:40;90757.06;;;-146.77;100.00
55410;BME280;41279;43.546;16.426;2022-07-29T00:22:05;89980.97;;;-146.77;100.00
55410;BME280;41279;43.546;16.426;2022-07-29T00:24:30;89463.63;;;-146.77;100.00
55410;BME280;41279;43.546;16.426;2022-07-29T00:26:56;89980.97;;;-146.77;100.00
55410;BME280;41279;43.546;16.426;2022-07-29T00:29:21;92568.59;;;-146.77;100.00
55410;BME280;41279;43.546;16.426;2022-07-29T00:31:46;93086.34;;;-146.77;100.00
55410;BME280;41279;43.546;16.426;2022-07-29T00:34:12;93863.03;;;-146.77;100.00
55410;BME280;41279;43.546;16.426;2022-07-29T00:36:56;93345.22;;;-146.77;100.00
55410;BME280;41279;43.546;16.426;2022-07-29T00:39:22;95416.94;;;-146.77;100.00
55410;BME280;41279;43.546;16.426;2022-07-29T00:41:48;97230.53;;;-146.77;100.00
55410;BME280;41279;43.546;16.426;2022-07-29T00:44:13;98008.06;;;-146.77;100.00
55410;BME280;41279;43.546;16.426;2022-07-29T00:46:39;105012.41;;;-146.77;100.00
55410;BME280;41279;43.546;16.426;2022-07-29T00:49:04;103195.28;;;-146.77;100.00
55410;BME280;41279;43.546;16.426;2022-07-29T00:51:30;101379.00;;;-146.77;100.00
55410;BME280;41279;43.546;16.426;2022-07-29T00:53:55;105272.03;;;-146.77;100.00
55410;BME280;41279;43.546;16.426;2022-07-29T00:56:22;101638.44;;;-146.77;100.00
55410;BME280;41279;43.546;16.426;2022-07-29T00:58:48;98267.25;;;-146.77;100.00
55410;BME280;41279;43.546;16.426;2022-07-29T01:01:15;97748.88;;;-146.77;100.00
55410;BME280;41279;43.546;16.426;2022-07-29T01:03:41;97230.53;;;-146.77;100.00
55410;BME280;41279;43.546;16.426;2022-07-29T01:06:06;96712.28;;;-146.77;100.00
55410;BME280;41279;43.546;16.426;2022-07-29T01:08:32;96453.19;;;-146.77;100.00
55410;BME280;41279;43.546;16.426;2022-07-29T01:10:58;96712.28;;;-146.77;100.00
55410;BME280;41279;43.546;16.426;2022-07-29T01:13:25;95675.97;;;-146.77;100.00
55410;BME280;41279;43.546;16.426;2022-07-29T01:15:54;93604.13;;;-146.77;100.00
55410;BME280;41279;43.546;16.426;2022-07-29T01:18:34;92050.94;;;-146.77;100.00
55410;BME280;41279;43.546;16.426;2022-07-29T01:31:54;94380.94;;;-146.77;100.00
55410;BME280;41279;43.546;16.426;2022-07-29T01:34:25;103454.81;;;-146.77;100.00
55410;BME280;41279;43.546;16.426;2022-07-29T01:37:04;106310.81;;;-146.77;100.00
55410;BME280;41279;43.546;16.426;2022-07-29T01:39:34;102157.31;;;-146.77;100.00
55410;BME280;41279;43.546;16.426;2022-07-29T01:42:20;95157.91;;;-146.77;100.00
55410;BME280;41279;43.546;16.426;2022-07-29T01:44:57;91792.13;;;-146.77;100.00
55410;BME280;41279;43.546;16.426;2022-07-29T01:47:26;93086.34;;;-146.77;100.00
55410;BME280;41279;43.546;16.426;2022-07-29T01:49:54;90757.06;;;-146.77;100.00
55410;BME280;41279;43.546;16.426;2022-07-29T01:52:34;89463.63;;;-146.77;100.00
55410;BME280;41279;43.546;16.426;2022-07-29T01:55:06;89722.28;;;-146.77;100.00
55410;BME280;41279;43.546;16.426;2022-07-29T01:57:34;89205.00;;;-146.77;100.00
55410;BME280;41279;43.546;16.426;2022-07-29T02:00:02;88946.38;;;-146.77;100.00
55410;BME280;41279;43.546;16.426;2022-07-29T02:02:30;92827.47;;;-146.77;100.00
55410;BME280;41279;43.546;16.426;2022-07-29T02:04:58;88946.38;;;-146.77;100.00
55410;BME280;41279;43.546;16.426;2022-07-29T02:07:28;89980.97;;;-146.77;100.00
55410;BME280;41279;43.546;16.426;2022-07-29T02:09:54;99822.84;;;-146.77;100.00
55410;BME280;41279;43.546;16.426;2022-07-29T02:12:21;102157.31;;;-146.77;100.00
55410;BME280;41279;43.546;16.426;2022-07-29T02:14:51;94380.94;;;-146.77;100.00
55410;BME280;41279;43.546;16.426;2022-07-29T02:17:25;97489.69;;;-146.77;100.00
55410;BME280;41279;43.546;16.426;2022-07-29T02:19:56;95935.03;;;-146.77;100.00
55410;BME280;41279;43.546;16.426;2022-07-29T02:22:23;86877.97;;;-146.77;100.00
55410;BME280;41279;43.546;16.426;2022-07-29T02:24:50;84035.69;;;-146.77;100.00
55410;BME280;41279;43.546;16.426;2022-07-29T02:27:17;85069.00;;;-146.77;100.00
55410;BME280;41279;43.546;16.426;2022-07-29T02:29:45;90239.66;;;-146.77;100.00
55410;BME280;41279;43.546;16.426;2022-07-29T02:32:13;91533.34;;;-146.77;100.00
55410;BME280;41279;43.546;16.426;2022-07-29T02:34:41;93604.13;;;-146.77;100.00
55410;BME280;41279;43.546;16.426;2022-07-29T02:37:09;95157.91;;;-146.77;100.00
55410;BME280;41279;43.546;16.426;2022-07-29T02:39:36;104752.75;;;-146.77;100.00
55410;BME280;41279;43.546;16.426;2022-07-29T02:42:05;94898.91;;;-146.77;100.00
55410;BME280;41279;43.546;16.426;2022-07-29T02:44:32;83519.09;;;-146.77;100.00
55410;BME280;41279;43.546;16.426;2022-07-29T02:47:09;77325.47;;;-146.77;100.00
55410;BME280;41279;43.546;16.426;2022-07-29T02:49:53;72199.59;;;-146.77;100.00
55410;BME280;41279;43.546;16.426;2022-07-29T02:52:22;69659.22;;;-146.77;100.00
55410;BME280;41279;43.546;16.426;2022-07-29T02:54:57;69112.34;;;-146.77;100.00
55410;BME280;41279;43.546;16.426;2022-07-29T02:57:36;65272.19;;;-146.77;100.00
55410;BME280;41279;43.546;16.426;2022-07-29T03:00:07;64920.72;;;-146.77;100.00
55410;BME280;41279;43.546;16.426;2022-07-29T03:02:36;62647.91;;;-146.77;100.00
55410;BME280;41279;43.546;16.426;2022-07-29T03:05:04;62196.31;;;-146.77;100.00
55410;BME280;41279;43.546;16.426;2022-07-29T03:07:30;61174.91;;;-146.77;100.00
55410;BME280;41279;43.546;16.426;2022-07-29T03:09:56;61526.03;;;-146.77;100.00
55410;BME280;41279;43.546;16.426;2022-07-29T03:12:23;62272.59;;;-146.77;100.00
55410;BME280;41279;43.546;16.426;2022-07-29T03:14:49;61726.72;;;-146.77;100.00
55410;BME280;41279;43.546;16.426;2022-07-29T03:17:15;61503.97;;;-146.77;100.00
55410;BME280;41279;43.546;16.426;2022-07-29T03:19:41;61166.88;;;-146.77;100.00
55410;BME280;41279;43.546;16.426;2022-07-29T03:22:07;60221.94;;;-146.77;100.00
55410;BME280;41279;43.546;16.426;2022-07-29T03:24:34;60695.38;;;-146.77;100.00
55410;BME280;41279;43.546;16.426;2022-07-29T03:27:01;60356.34;;;-146.77;100.00
55410;BME280;41279;43.546;16.426;2022-07-29T03:29:27;59201.03;;;-146.77;100.00
55410;BME280;41279;43.546;16.426;2022-07-29T03:31:53;59479.78;;;-146.77;100.00
55410;BME280;41279;43.546;16.426;2022-07-29T03:34:18;59632.22;;;-146.77;100.00
55410;BME280;41279;43.546;16.426;2022-07-29T03:36:44;58922.28;;;-146.77;100.00
55410;BME280;41279;43.546;16.426;2022-07-29T03:39:10;59223.09;;;-146.77;100.00
55410;BME280;41279;43.546;16.426;2022-07-29T03:41:38;60428.56;;;-146.77;100.00
55410;BME280;41279;43.546;16.426;2022-07-29T03:44:05;68535.38;;;-146.77;100.00
55410;BME280;41279;43.546;16.426;2022-07-29T03:46:35;66091.75;;;-146.77;100.00
55410;BME280;41279;43.546;16.426;2022-07-29T03:49:03;64681.72;;;-146.77;100.00
55410;BME280;41279;43.546;16.426;2022-07-29T03:51:29;62316.72;;;-146.77;100.00
55410;BME280;41279;43.546;16.426;2022-07-29T03:53:55;62411.06;;;-146.77;100.00
55410;BME280;41279;43.546;16.426;2022-07-29T03:56:28;64860.47;;;-146.77;100.00
55410;BME280;41279;43.546;16.426;2022-07-29T03:58:54;61461.81;;;-146.77;100.00
55410;BME280;41279;43.546;16.426;2022-07-29T04:01:20;59732.50;;;-146.77;100.00
55410;BME280;41279;43.546;16.426;2022-07-29T04:03:47;60595.06;;;-146.77;100.00
55410;BME280;41279;43.546;16.426;2022-07-29T04:06:13;60759.56;;;-146.77;100.00
55410;BME280;41279;43.546;16.426;2022-07-29T04:08:39;61796.94;;;-146.77;100.00
55410;BME280;41279;43.546;16.426;2022-07-29T04:11:05;59935.09;;;-146.77;100.00
55410;BME280;41279;43.546;16.426;2022-07-29T04:13:32;60272.09;;;-146.77;100.00
55410;BME280;41279;43.546;16.426;2022-07-29T04:15:57;59172.94;;;-146.77;100.00
55410;BME280;41279;43.546;16.426;2022-07-29T04:18:23;58858.09;;;-146.77;100.00
55410;BME280;41279;43.546;16.426;2022-07-29T04:20:49;58685.66;;;-146.77;100.00
55410;BME280;41279;43.546;16.426;2022-07-29T04:23:14;58132.25;;;-146.77;100.00
55410;BME280;41279;43.546;16.426;2022-07-29T04:25:41;58168.34;;;-146.77;100.00
55410;BME280;41279;43.546;16.426;2022-07-29T04:28:07;57899.69;;;-146.77;100.00
55410;BME280;41279;43.546;16.426;2022-07-29T04:30:35;57691.19;;;-146.77;100.00
55410;BME280;41279;43.546;16.426;2022-07-29T04:33:02;56344.25;;;-146.77;100.00
55410;BME280;41279;43.546;16.426;2022-07-29T04:35:28;55618.88;;;-146.77;100.00
55410;BME280;41279;43.546;16.426;2022-07-29T04:37:54;54921.66;;;-146.77;100.00
55410;BME280;41279;43.546;16.426;2022-07-29T04:40:19;54615.16;;;-146.77;100.00
55410;BME280;41279;43.546;16.426;2022-07-29T04:42:45;54713.31;;;-146.77;100.00
55410;BME280;41279;43.546;16.426;2022-07-29T04:45:10;55160.06;;;-146.77;100.00
55410;BME280;41279;43.546;16.426;2022-07-29T04:47:36;55017.81;;;-146.77;100.00
55410;BME280;41279;43.546;16.426;2022-07-29T04:50:01;54839.53;;;-146.77;100.00
55410;BME280;41279;43.546;16.426;2022-07-29T04:52:27;54715.31;;;-146.77;100.00
55410;BME280;41279;43.546;16.426;2022-07-29T04:54:52;55148.03;;;-146.77;100.00
55410;BME280;41279;43.546;16.426;2022-07-29T04:57:18;55414.50;;;-146.77;100.00
55410;BME280;41279;43.546;16.426;2022-07-29T04:59:43;54653.22;;;-146.77;100.00
55410;BME280;41279;43.546;16.426;2022-07-29T05:02:09;54499.00;;;-146.77;100.00
55410;BME280;41279;43.546;16.426;2022-07-29T05:04:35;54400.84;;;-146.77;100.00
55410;BME280;41279;43.546;16.426;2022-07-29T05:07:00;54300.69;;;-146.77;93.31
55410;BME280;41279;43.546;16.426;2022-07-29T05:09:25;54152.47;;;-146.77;87.93
55410;BME280;41279;43.546;16.426;2022-07-29T05:11:51;54094.38;;;-146.77;84.95
55410;BME280;41279;43.546;16.426;2022-07-29T05:14:16;54008.25;;;-146.77;83.64
55410;BME280;41279;43.546;16.426;2022-07-29T05:16:49;54204.53;;;-146.77;85.53
55410;BME280;41279;43.546;16.426;2022-07-29T05:19:16;54408.84;;;-146.77;83.78
55410;BME280;41279;43.546;16.426;2022-07-29T05:21:48;54356.78;;;-146.77;80.96
55410;BME280;41279;43.546;16.426;2022-07-29T05:24:14;54174.50;;;-146.77;79.39
55410;BME280;41279;43.546;16.426;2022-07-29T05:26:39;54122.41;;;-146.77;75.47
55410;BME280;41279;43.546;16.426;2022-07-29T05:29:05;53906.13;;;-146.77;73.50
55410;BME280;41279;43.546;16.426;2022-07-29T05:31:30;54024.28;;;-146.77;72.97
55410;BME280;41279;43.546;16.426;2022-07-29T05:33:56;53902.09;;;-146.77;74.42
55410;BME280;41279;43.546;16.426;2022-07-29T05:36:21;53882.09;;;-146.77;73.90
55410;BME280;41279;43.546;16.426;2022-07-29T05:38:46;53888.09;;;-146.77;73.20
55410;BME280;41279;43.546;16.426;2022-07-29T05:41:12;53972.22;;;-146.77;74.71
55410;BME280;41279;43.546;16.426;2022-07-29T05:43:38;53938.16;;;-146.77;74.88
55410;BME280;41279;43.546;16.426;2022-07-29T05:46:03;53934.16;;;-146.77;75.71
55410;BME280;41279;43.546;16.426;2022-07-29T05:48:29;53996.25;;;-146.77;74.12
55410;BME280;41279;43.546;16.426;2022-07-29T05:51:01;53924.16;;;-146.77;73.12
55410;BME280;41279;43.546;16.426;2022-07-29T05:53:27;54060.34;;;-146.77;71.92
55410;BME280;41279;43.546;16.426;2022-07-29T05:55:52;54100.38;;;-146.77;69.84
55410;BME280;41279;43.546;16.426;2022-07-29T05:58:18;54192.53;;;-146.77;68.07
55410;BME280;41279;43.546;16.426;2022-07-29T06:00:44;54042.31;;;-146.77;69.13
55410;BME280;41279;43.546;16.426;2022-07-29T06:03:09;54084.38;;;-146.77;67.66
55410;BME280;41279;43.546;16.426;2022-07-29T06:05:35;54010.25;;;-146.77;65.81
55410;BME280;41279;43.546;16.426;2022-07-29T06:08:00;54182.50;;;-146.77;69.50
55410;BME280;41279;43.546;16.426;2022-07-29T06:10:25;54296.69;;;-146.77;67.15
55410;BME280;41279;43.546;16.426;2022-07-29T06:12:52;54140.44;;;-146.77;67.18
55410;BME280;41279;43.546;16.426;2022-07-29T06:15:18;54256.63;;;-146.77;67.92
55410;BME280;41279;43.546;16.426;2022-07-29T06:17:43;54472.94;;;-146.77;67.74
55410;BME280;41279;43.546;16.426;2022-07-29T06:20:09;54496.97;;;-146.77;72.15
55410;BME280;41279;43.546;16.426;2022-07-29T06:22:35;54657.22;;;-146.77;74.33
55410;BME280;41279;43.546;16.426;2022-07-29T06:25:01;54450.91;;;-146.77;69.57
55410;BME280;41279;43.546;16.426;2022-07-29T06:27:27;54248.59;;;-146.77;64.31
55410;BME280;41279;43.546;16.426;2022-07-29T06:29:52;54613.16;;;-146.77;70.58
55410;BME280;41279;43.546;16.426;2022-07-29T06:32:18;54861.56;;;-146.77;73.17
55410;BME280;41279;43.546;16.426;2022-07-29T06:34:44;54422.88;;;-146.77;66.40
55410;BME280;41279;43.546;16.426;2022-07-29T06:37:09;54677.25;;;-146.77;71.45
55410;BME280;41279;43.546;16.426;2022-07-29T06:39:35;54587.13;;;-146.77;70.10
55410;BME280;41279;43.546;16.426;2022-07-29T06:42:02;54270.63;;;-146.77;60.84
55410;BME280;41279;43.546;16.426;2022-07-29T06:44:28;54717.34;;;-146.77;70.83
55410;BME280;41279;43.546;16.426;2022-07-29T06:46:53;54967.75;;;-146.77;77.81
55410;BME280;41279;43.546;16.426;2022-07-29T06:49:19;55029.84;;;-146.77;77.62
55410;BME280;41279;43.546;16.426;2022-07-29T06:51:45;54519.03;;;-146.77;74.32
55410;BME280;41279;43.546;16.426;2022-07-29T06:54:11;54462.94;;;-146.77;75.81
55410;BME280;41279;43.546;16.426;2022-07-29T06:56:37;54649.22;;;-146.77;78.06
55410;BME280;41279;43.546;16.426;2022-07-29T06:59:03;54837.53;;;-146.77;78.40
55410;BME280;41279;43.546;16.426;2022-07-29T07:01:29;54645.22;;;-146.77;75.90
55410;BME280;41279;43.546;16.426;2022-07-29T07:03:54;54541.06;;;-146.77;71.92
55410;BME280;41279;43.546;16.426;2022-07-29T07:06:20;54464.94;;;-146.77;73.39
55410;BME280;41279;43.546;16.426;2022-07-29T07:08:45;54539.03;;;-146.77;75.94
55410;BME280;41279;43.546;16.426;2022-07-29T07:11:10;54723.34;;;-146.77;77.57
55410;BME280;41279;43.546;16.426;2022-07-29T07:13:36;54923.66;;;-146.77;83.62
55410;BME280;41279;43.546;16.426;2022-07-29T07:16:01;54697.28;;;-146.77;85.85
55410;BME280;41279;43.546;16.426;2022-07-29T07:18:27;54675.25;;;-146.77;80.24
55410;BME280;41279;43.546;16.426;2022-07-29T07:20:53;54565.09;;;-146.77;76.62
55410;BME280;41279;43.546;16.426;2022-07-29T07:23:18;54867.56;;;-146.77;81.42
55410;BME280;41279;43.546;16.426;2022-07-29T07:25:44;55017.81;;;-146.77;89.24
55410;BME280;41279;43.546;16.426;2022-07-29T07:28:11;55238.19;;;-146.77;90.21
55410;BME280;41279;43.546;16.426;2022-07-29T07:30:37;55218.16;;;-146.77;95.72
55410;BME280;41279;43.546;16.426;2022-07-29T07:33:03;55971.53;;;-146.77;100.00
55410;BME280;41279;43.546;16.426;2022-07-29T07:35:29;56238.06;;;-146.77;100.00
55410;BME280;41279;43.546;16.426;2022-07-29T07:37:56;56618.81;;;-146.77;100.00
55410;BME280;41279;43.546;16.426;2022-07-29T07:40:22;56949.53;;;-146.77;100.00
55410;BME280;41279;43.546;16.426;2022-07-29T07:42:48;56638.88;;;-146.77;100.00
55410;BME280;41279;43.546;16.426;2022-07-29T07:45:14;55370.44;;;-146.77;94.70
55410;BME280;41279;43.546;16.426;2022-07-29T07:47:40;55536.72;;;-146.77;93.37
55410;BME280;41279;43.546;16.426;2022-07-29T07:50:08;55650.94;;;-146.77;97.01
55410;BME280;41279;43.546;16.426;2022-07-29T07:52:46;55568.78;;;-146.77;96.57
55410;BME280;41279;43.546;16.426;2022-07-29T07:55:11;55556.75;;;-146.77;95.41
55410;BME280;41279;43.546;16.426;2022-07-29T07:57:37;56041.66;;;-146.77;96.14
55410;BME280;41279;43.546;16.426;2022-07-29T08:00:04;56119.81;;;-146.77;96.53
55410;BME280;41279;43.546;16.426;2022-07-29T08:02:29;55939.47;;;-146.77;93.09
55410;BME280;41279;43.546;16.426;2022-07-29T08:04:55;56111.81;;;-146.77;95.61
55410;BME280;41279;43.546;16.426;2022-07-29T08:07:21;56065.72;;;-146.77;98.49
55410;BME280;41279;43.546;16.426;2022-07-29T08:09:46;56015.63;;;-146.77;99.04
55410;BME280;41279;43.546;16.426;2022-07-29T08:12:12;56027.63;;;-146.77;94.83
55410;BME280;41279;43.546;16.426;2022-07-29T08:14:37;56171.91;;;-146.77;99.48
55410;BME280;41279;43.546;16.426;2022-07-29T08:17:02;56456.50;;;-146.77;100.00
55410;BME280;41279;43.546;16.426;2022-07-29T08:19:28;56404.38;;;-146.77;100.00
55410;BME280;41279;43.546;16.426;2022-07-29T08:21:54;56901.41;;;-146.77;100.00
55410;BME280;41279;43.546;16.426;2022-07-29T08:24:20;57017.66;;;-146.77;100.00
55410;BME280;41279;43.546;16.426;2022-07-29T08:27:04;56380.34;;;-146.77;99.17
55410;BME280;41279;43.546;16.426;2022-07-29T08:29:30;55785.19;;;-146.77;92.18
55410;BME280;41279;43.546;16.426;2022-07-29T08:31:55;55793.19;;;-146.77;90.38
55410;BME280;41279;43.546;16.426;2022-07-29T08:34:20;55662.94;;;-146.77;89.83
55410;BME280;41279;43.546;16.426;2022-07-29T08:36:46;55705.03;;;-146.77;91.18
55410;BME280;41279;43.546;16.426;2022-07-29T08:39:11;55386.47;;;-146.77;89.82
55410;BME280;41279;43.546;16.426;2022-07-29T08:41:36;55240.19;;;-146.77;85.33
55410;BME280;41279;43.546;16.426;2022-07-29T08:44:03;55274.25;;;-146.77;82.98
55410;BME280;41279;43.546;16.426;2022-07-29T08:46:29;55428.53;;;-146.77;86.04
55410;BME280;41279;43.546;16.426;2022-07-29T08:48:55;55582.81;;;-146.77;88.52
55410;BME280;41279;43.546;16.426;2022-07-29T08:51:21;55532.72;;;-146.77;89.00
55410;BME280;41279;43.546;16.426;2022-07-29T08:53:49;55765.16;;;-146.77;90.17
55410;BME280;41279;43.546;16.426;2022-07-29T08:56:15;56256.09;;;-146.77;93.88
55410;BME280;41279;43.546;16.426;2022-07-29T08:58:42;55689.00;;;-146.77;92.09
55410;BME280;41279;43.546;16.426;2022-07-29T09:01:10;55805.22;;;-146.77;89.15
55410;BME280;41279;43.546;16.426;2022-07-29T09:03:37;55266.25;;;-146.77;78.77
55410;BME280;41279;43.546;16.426;2022-07-29T09:06:04;55041.88;;;-146.77;73.83
55410;BME280;41279;43.546;16.426;2022-07-29T09:08:31;55097.97;;;-146.77;73.76
55410;BME280;41279;43.546;16.426;2022-07-29T09:10:56;55410.50;;;-146.77;76.56
55410;BME280;41279;43.546;16.426;2022-07-29T09:13:22;55142.03;;;-146.77;78.32
55410;BME280;41279;43.546;16.426;2022-07-29T09:15:48;55005.81;;;-146.77;78.13
55410;BME280;41279;43.546;16.426;2022-07-29T09:18:33;54909.66;;;-146.77;80.01
55410;BME280;41279;43.546;16.426;2022-07-29T09:21:00;55009.81;;;-146.77;77.47
55410;BME280;41279;43.546;16.426;2022-07-29T09:24:08;54739.38;;;-146.77;79.61
55410;BME280;41279;43.546;16.426;2022-07-29T09:26:42;54971.75;;;-146.77;81.39
55410;BME280;41279;43.546;16.426;2022-07-29T09:29:17;55178.09;;;-146.77;83.97
55410;BME280;41279;43.546;16.426;2022-07-29T09:31:45;55053.88;;;-146.77;83.01
55410;BME280;41279;43.546;16.426;2022-07-29T09:34:13;54667.25;;;-146.77;80.10
55410;BME280;41279;43.546;16.426;2022-07-29T09:36:49;54767.41;;;-146.77;81.75
55410;BME280;41279;43.546;16.426;2022-07-29T09:39:17;55081.94;;;-146.77;86.55
55410;BME280;41279;43.546;16.426;2022-07-29T09:41:54;55202.13;;;-146.77;89.50
55410;BME280;41279;43.546;16.426;2022-07-29T09:44:21;54901.63;;;-146.77;85.52
55410;BME280;41279;43.546;16.426;2022-07-29T09:46:57;55148.03;;;-146.77;87.51
55410;BME280;41279;43.546;16.426;2022-07-29T09:49:24;54817.50;;;-146.77;81.10
55410;BME280;41279;43.546;16.426;2022-07-29T09:52:06;54997.78;;;-146.77;82.42
55410;BME280;41279;43.546;16.426;2022-07-29T09:54:33;55352.41;;;-146.77;86.92
55410;BME280;41279;43.546;16.426;2022-07-29T09:57:03;55454.56;;;-146.77;86.81
55410;BME280;41279;43.546;16.426;2022-07-29T09:59:29;55168.06;;;-146.77;85.76
55410;BME280;41279;43.546;16.426;2022-07-29T10:01:56;55146.03;;;-146.77;86.10
55410;BME280;41279;43.546;16.426;2022-07-29T10:04:22;55632.91;;;-146.77;92.45
55410;BME280;41279;43.546;16.426;2022-07-29T10:06:58;55242.19;;;-146.77;87.30
55410;BME280;41279;43.546;16.426;2022-07-29T10:09:25;54875.59;;;-146.77;81.35
55410;BME280;41279;43.546;16.426;2022-07-29T10:14:30;54613.16;;;-146.77;74.32
55410;BME280;41279;43.546;16.426;2022-07-29T10:16:56;54464.94;;;-146.77;68.92
55410;BME280;41279;43.546;16.426;2022-07-29T10:19:22;54761.41;;;-146.77;73.30
55410;BME280;41279;43.546;16.426;2022-07-29T10:21:48;54781.44;;;-146.77;71.19
55410;BME280;41279;43.546;16.426;2022-07-29T10:24:14;54805.47;;;-146.77;71.48
55410;BME280;41279;43.546;16.426;2022-07-29T10:26:39;54889.59;;;-146.77;74.60
55410;BME280;41279;43.546;16.426;2022-07-29T10:29:06;55037.84;;;-146.77;78.11
55410;BME280;41279;43.546;16.426;2022-07-29T10:34:44;54741.38;;;-146.77;74.38
55410;BME280;41279;43.546;16.426;2022-07-29T10:37:46;54899.63;;;-146.77;77.31
55410;BME280;41279;43.546;16.426;2022-07-29T10:40:23;55382.44;;;-146.77;78.29
55410;BME280;41279;43.546;16.426;2022-07-29T10:43:24;54535.03;;;-146.77;65.32
55410;BME280;41279;43.546;16.426;2022-07-29T10:45:59;54629.19;;;-146.77;64.91
55410;BME280;41279;43.546;16.426;2022-07-29T10:48:25;55188.09;;;-146.77;73.94
55410;BME280;41279;43.546;16.426;2022-07-29T10:51:04;54829.50;;;-146.77;69.95
55410;BME280;41279;43.546;16.426;2022-07-29T10:53:51;54697.28;;;-146.77;67.80
55410;BME280;41279;43.546;16.426;2022-07-29T10:56:29;54689.28;;;-146.77;62.02
55410;BME280;41279;43.546;16.426;2022-07-29T11:01:48;54629.19;;;-146.77;59.75
55410;BME280;41279;43.546;16.426;2022-07-29T11:07:10;54769.41;;;-146.77;61.15
55410;BME280;41279;43.546;16.426;2022-07-29T11:09:36;54823.50;;;-146.77;63.76
55410;BME280;41279;43.546;16.426;2022-07-29T11:12:01;55124.00;;;-146.77;66.62
55410;BME280;41279;43.546;16.426;2022-07-29T11:17:18;54681.28;;;-146.77;62.95
55410;BME280;41279;43.546;16.426;2022-07-29T11:19:44;54755.38;;;-146.77;62.66
55410;BME280;41279;43.546;16.426;2022-07-29T11:22:46;55003.78;;;-146.77;63.63
55410;BME280;41279;43.546;16.426;2022-07-29T11:25:15;55061.91;;;-146.77;62.17
55410;BME280;41279;43.546;16.426;2022-07-29T11:27:42;54919.66;;;-146.77;60.69
55410;BME280;41279;43.546;16.426;2022-07-29T11:30:08;54873.59;;;-146.77;58.37
55410;BME280;41279;43.546;16.426;2022-07-29T11:32:40;54779.44;;;-146.77;61.98
55410;BME280;41279;43.546;16.426;2022-07-29T11:35:19;54767.41;;;-146.77;62.61
55410;BME280;41279;43.546;16.426;2022-07-29T11:41:25;54729.34;;;-146.77;57.22
55410;BME280;41279;43.546;16.426;2022-07-29T11:46:47;54547.06;;;-146.77;57.04
55410;BME280;41279;43.546;16.426;2022-07-29T11:49:22;54609.16;;;-146.77;55.80
55410;BME280;41279;43.546;16.426;2022-07-29T11:51:52;54589.13;;;-146.77;57.82
55410;BME280;41279;43.546;16.426;2022-07-29T11:54:26;54394.81;;;-146.77;56.17
55410;BME280;41279;43.546;16.426;2022-07-29T11:56:57;54422.88;;;-146.77;61.63
55410;BME280;41279;43.546;16.426;2022-07-29T11:59:23;54228.56;;;-146.77;59.43
55410;BME280;41279;43.546;16.426;2022-07-29T12:01:56;54234.59;;;-146.77;60.68
55410;BME280;41279;43.546;16.426;2022-07-29T12:04:21;54212.56;;;-146.77;60.05
55410;BME280;41279;43.546;16.426;2022-07-29T12:06:52;54525.03;;;-146.77;60.84
55410;BME280;41279;43.546;16.426;2022-07-29T12:09:18;54721.34;;;-146.77;66.82
55410;BME280;41279;43.546;16.426;2022-07-29T12:11:45;54801.47;;;-146.77;68.81
55410;BME280;41279;43.546;16.426;2022-07-29T12:14:32;55184.09;;;-146.77;72.29
55410;BME280;41279;43.546;16.426;2022-07-29T12:16:59;55039.84;;;-146.77;73.48
55410;BME280;41279;43.546;16.426;2022-07-29T12:19:28;54965.72;;;-146.77;73.44
55410;BME280;41279;43.546;16.426;2022-07-29T12:21:54;54919.66;;;-146.77;75.22
55410;BME280;41279;43.546;16.426;2022-07-29T12:24:20;54753.38;;;-146.77;72.95
55410;BME280;41279;43.546;16.426;2022-07-29T12:26:57;54865.56;;;-146.77;73.88
55410;BME280;41279;43.546;16.426;2022-07-29T12:29:24;55274.25;;;-146.77;75.49
55410;BME280;41279;43.546;16.426;2022-07-29T12:31:53;55097.97;;;-146.77;75.41
55410;BME280;41279;43.546;16.426;2022-07-29T12:34:20;55514.69;;;-146.77;81.21
55410;BME280;41279;43.546;16.426;2022-07-29T12:36:48;54973.75;;;-146.77;73.95
55410;BME280;41279;43.546;16.426;2022-07-29T12:39:15;55578.81;;;-146.77;82.38
55410;BME280;41279;43.546;16.426;2022-07-29T12:41:41;56103.78;;;-146.77;86.03
55410;BME280;41279;43.546;16.426;2022-07-29T12:44:07;55947.50;;;-146.77;87.09
55410;BME280;41279;43.546;16.426;2022-07-29T12:46:32;55873.34;;;-146.77;88.02
55410;BME280;41279;43.546;16.426;2022-07-29T12:48:58;55556.75;;;-146.77;90.01
55410;BME280;41279;43.546;16.426;2022-07-29T12:54:10;56272.13;;;-146.77;93.67
55410;BME280;41279;43.546;16.426;2022-07-29T12:56:37;56707.00;;;-146.77;93.22
55410;BME280;41279;43.546;16.426;2022-07-29T12:59:20;55687.00;;;-146.77;84.40
55410;BME280;41279;43.546;16.426;2022-07-29T13:01:52;56582.75;;;-146.77;94.24
55410;BME280;41279;43.546;16.426;2022-07-29T13:04:28;56029.66;;;-146.77;91.54